Hinton, Missouri
Current Conditions -  °F | °C
As of 5:54 AM on Saturday 20 Dec 2014 (Local Time) from KCOU Reporting Station
Haze Haze  
Wind Chill: 30°   Ceiling: 400
Heat Index: 35°   Visibility: 3mi
Dew Point: 34°   Wind: 6mph
Humidity: 96%   Direction: 130°SE
Pressure: 30.21"   Gusts: NA
Location:  39.0235°N, 92.2896°W
Report Text: KCOU 201154Z AUTO 13005KT 3SM BR OVC004 02/01 A3021 RMK AO2 SLP236 T00170011 10017 20017 55004
Loading
Personal Weather Stations






























Interactive Weather Map New forecast layout! Learn more

10-Day Weather Forecast

Advertisements
Track Severe Weather on mobile